createdAt,value
2019-04-01T00:00:40.405Z,22.71
2019-04-01T00:03:10.055Z,22.69
2019-04-01T00:05:38.464Z,22.69
2019-04-01T00:08:06.848Z,22.68
2019-04-01T00:10:35.260Z,22.67
2019-04-01T00:13:03.820Z,22.66
2019-04-01T00:15:32.245Z,22.65
2019-04-01T00:18:00.654Z,22.63
2019-04-01T00:20:29.088Z,22.63
2019-04-01T00:22:57.690Z,22.61
2019-04-01T00:25:26.152Z,22.61
2019-04-01T00:27:54.554Z,22.59
2019-04-01T00:30:22.982Z,22.57
2019-04-01T00:32:51.375Z,22.58
2019-04-01T00:35:19.815Z,22.57
2019-04-01T00:37:48.210Z,22.56
2019-04-01T00:40:16.610Z,22.54
2019-04-01T00:42:58.720Z,22.53
2019-04-01T00:45:28.795Z,22.53
2019-04-01T00:47:57.194Z,22.51
2019-04-01T00:50:25.703Z,22.49
2019-04-01T00:52:54.096Z,22.49
2019-04-01T00:55:22.497Z,22.46
2019-04-01T00:57:50.898Z,22.48
2019-04-01T01:00:20.310Z,22.45
2019-04-01T01:02:48.706Z,22.45
2019-04-01T01:05:17.111Z,22.43
2019-04-01T01:07:45.516Z,22.43
2019-04-01T01:10:13.929Z,22.43
2019-04-01T01:12:42.332Z,22.41
2019-04-01T01:15:10.761Z,22.40
2019-04-01T01:17:39.146Z,22.39
2019-04-01T01:20:07.542Z,22.39
2019-04-01T01:22:35.952Z,22.38
2019-04-01T01:25:04.623Z,22.37
2019-04-01T01:27:34.137Z,22.36
2019-04-01T01:30:02.537Z,22.36
2019-04-01T01:32:30.977Z,22.34
2019-04-01T01:34:59.368Z,22.34
2019-04-01T01:37:27.959Z,22.32
2019-04-01T01:39:57.000Z,22.32
2019-04-01T01:42:25.421Z,22.29
2019-04-01T01:44:53.816Z,22.29
2019-04-01T01:47:22.206Z,22.29
2019-04-01T01:49:50.629Z,22.29
2019-04-01T01:52:19.030Z,22.28
2019-04-01T01:54:47.433Z,22.27
2019-04-01T01:57:15.833Z,22.25
2019-04-01T01:59:44.226Z,22.25
2019-04-01T02:02:12.773Z,22.24
2019-04-01T02:04:41.164Z,22.23
2019-04-01T02:07:09.562Z,22.22
2019-04-01T02:09:37.956Z,22.22
2019-04-01T02:12:06.355Z,22.22
2019-04-01T02:14:34.752Z,22.20
2019-04-01T02:17:03.168Z,22.22
2019-04-01T02:19:31.548Z,22.20
2019-04-01T02:21:59.955Z,22.20
2019-04-01T02:24:28.353Z,22.19
2019-04-01T02:26:56.761Z,22.19
2019-04-01T02:29:25.159Z,22.17
2019-04-01T02:31:53.562Z,22.18
2019-04-01T02:34:21.957Z,22.17
2019-04-01T02:36:50.357Z,22.18
2019-04-01T02:39:18.758Z,22.16
2019-04-01T02:41:47.163Z,22.16
2019-04-01T02:44:15.574Z,22.16
2019-04-01T02:46:44.016Z,22.14
2019-04-01T02:49:12.412Z,22.15
2019-04-01T02:51:40.833Z,22.14
2019-04-01T02:54:09.226Z,22.14
2019-04-01T02:56:37.719Z,22.13
2019-04-01T02:59:06.114Z,22.12
2019-04-01T03:01:34.551Z,22.11
2019-04-01T03:04:02.940Z,22.10
2019-04-01T03:06:31.358Z,22.10
2019-04-01T03:08:59.785Z,22.10
2019-04-01T03:11:28.203Z,22.09
2019-04-01T03:13:56.600Z,22.08
2019-04-01T03:16:25.034Z,22.07
2019-04-01T03:18:53.428Z,22.07
2019-04-01T03:21:21.930Z,22.06
2019-04-01T03:23:50.331Z,22.06
2019-04-01T03:26:18.733Z,22.05
2019-04-01T03:28:47.147Z,22.05
2019-04-01T03:31:15.542Z,22.06
2019-04-01T03:33:43.950Z,22.04
2019-04-01T03:36:12.404Z,22.04
2019-04-01T03:38:40.879Z,22.02
2019-04-01T03:41:09.348Z,22.03
2019-04-01T03:43:37.846Z,22.01
2019-04-01T03:46:06.255Z,22.01
2019-04-01T03:48:34.647Z,22.01
2019-04-01T03:51:03.052Z,21.99
2019-04-01T03:53:31.451Z,22.00
2019-04-01T03:55:59.895Z,21.99
2019-04-01T03:58:28.298Z,21.98
2019-04-01T04:00:56.698Z,21.97
2019-04-01T04:03:25.116Z,21.97
2019-04-01T04:05:53.502Z,21.95
2019-04-01T04:08:21.934Z,21.95
2019-04-01T04:10:50.334Z,21.95
2019-04-01T04:13:18.779Z,21.93
2019-04-01T04:15:47.184Z,21.93
2019-04-01T04:18:15.606Z,21.93
2019-04-01T04:20:44.084Z,21.92
2019-04-01T04:23:12.519Z,21.91
2019-04-01T04:25:40.917Z,21.92
2019-04-01T04:28:09.459Z,21.91
2019-04-01T04:30:37.857Z,21.90
2019-04-01T04:33:06.314Z,21.90
2019-04-01T04:35:34.710Z,21.89
2019-04-01T04:38:03.124Z,21.88
2019-04-01T04:40:31.576Z,21.88
2019-04-01T04:42:59.991Z,21.88
2019-04-01T04:45:28.394Z,21.88
2019-04-01T04:47:56.831Z,21.87
2019-04-01T04:50:25.229Z,21.88
2019-04-01T04:52:53.685Z,21.88
2019-04-01T04:55:22.070Z,21.86
2019-04-01T04:57:50.498Z,21.86
2019-04-01T05:00:18.962Z,21.86
2019-04-01T05:02:47.391Z,21.86
2019-04-01T05:05:15.851Z,21.85
2019-04-01T05:07:44.247Z,21.84
2019-04-01T05:10:12.638Z,21.84
2019-04-01T05:12:41.086Z,21.85
2019-04-01T05:15:09.499Z,21.84
2019-04-01T05:17:39.964Z,21.84
2019-04-01T05:20:08.155Z,21.84
2019-04-01T05:22:36.552Z,21.84
2019-04-01T05:25:05.553Z,21.82
2019-04-01T05:27:34.019Z,21.85
2019-04-01T05:30:03.622Z,21.84
2019-04-01T05:32:32.868Z,21.84
2019-04-01T05:35:01.291Z,21.82
2019-04-01T05:37:29.710Z,21.82
2019-04-01T05:39:58.587Z,21.84
2019-04-01T05:42:27.178Z,21.83
2019-04-01T05:44:55.569Z,21.82
2019-04-01T05:47:25.647Z,21.83
2019-04-01T05:49:54.043Z,21.84
2019-04-01T05:52:22.466Z,21.84
2019-04-01T05:54:50.851Z,21.84
2019-04-01T05:57:19.242Z,21.84
2019-04-01T05:59:47.636Z,21.83
2019-04-01T06:02:16.038Z,21.82
2019-04-01T06:04:44.430Z,21.83
2019-04-01T06:07:13.401Z,21.82
2019-04-01T06:09:41.800Z,21.83
2019-04-01T06:12:10.195Z,21.83
2019-04-01T06:14:39.570Z,21.83
2019-04-01T06:17:07.962Z,21.82
2019-04-01T06:19:36.358Z,21.82
2019-04-01T06:22:04.777Z,21.83
2019-04-01T06:24:33.176Z,21.83
2019-04-01T06:27:02.089Z,21.84
2019-04-01T06:29:30.625Z,21.85
2019-04-01T06:31:59.088Z,21.83
2019-04-01T06:34:27.501Z,21.88
2019-04-01T06:36:55.899Z,21.93
2019-04-01T06:39:24.287Z,21.99
2019-04-01T06:41:52.693Z,22.04
2019-04-01T06:44:21.162Z,22.08
2019-04-01T06:46:49.548Z,22.14
2019-04-01T06:49:20.317Z,22.20
2019-04-01T06:51:48.066Z,22.23
2019-04-01T06:54:16.457Z,22.30
2019-04-01T06:56:44.848Z,22.34
2019-04-01T06:59:13.282Z,22.39
2019-04-01T07:01:41.716Z,22.42
2019-04-01T07:04:10.817Z,22.46
2019-04-01T07:06:39.206Z,22.49
2019-04-01T07:09:07.714Z,22.53
2019-04-01T07:11:36.175Z,22.55
2019-04-01T07:14:05.241Z,22.59
2019-04-01T07:16:33.642Z,22.60
2019-04-01T07:19:02.067Z,22.64
2019-04-01T07:21:30.453Z,22.68
2019-04-01T07:23:58.869Z,22.70
2019-04-01T07:26:27.268Z,22.73
2019-04-01T07:28:55.845Z,22.75
2019-04-01T07:31:24.237Z,22.79
2019-04-01T07:33:52.670Z,22.82
2019-04-01T07:36:21.066Z,22.84
2019-04-01T07:38:49.497Z,22.88
2019-04-01T07:41:17.906Z,22.90
2019-04-01T07:43:46.317Z,22.92
2019-04-01T07:46:14.875Z,22.96
2019-04-01T07:48:43.447Z,22.99
2019-04-01T07:51:11.945Z,23.02
2019-04-01T07:53:40.383Z,23.06
2019-04-01T07:56:08.775Z,23.08
2019-04-01T07:58:37.183Z,23.12
2019-04-01T08:01:05.569Z,23.13
2019-04-01T08:03:34.004Z,23.16
2019-04-01T08:06:02.393Z,23.19
2019-04-01T08:08:30.786Z,23.21
2019-04-01T08:10:59.191Z,23.23
2019-04-01T08:13:27.589Z,23.26
2019-04-01T08:15:56.001Z,23.30
2019-04-01T08:18:24.390Z,23.32
2019-04-01T08:20:52.793Z,23.35
2019-04-01T08:23:21.207Z,23.39
2019-04-01T08:25:49.608Z,23.42
2019-04-01T08:28:18.022Z,23.44
2019-04-01T08:30:46.418Z,23.48
2019-04-01T08:33:14.806Z,23.52
2019-04-01T08:35:43.281Z,23.56
2019-04-01T08:38:11.668Z,23.59
2019-04-01T08:40:40.063Z,23.63
2019-04-01T08:43:08.460Z,23.69
2019-04-01T08:45:36.856Z,23.73
2019-04-01T08:48:05.251Z,23.77
2019-04-01T08:50:33.641Z,23.85
2019-04-01T08:53:02.042Z,23.90
2019-04-01T08:55:30.432Z,23.96
2019-04-01T08:57:58.822Z,24.00
2019-04-01T09:00:27.219Z,24.05
2019-04-01T09:02:55.833Z,24.13
2019-04-01T09:05:24.226Z,24.18
2019-04-01T09:07:52.617Z,24.25
2019-04-01T09:10:21.012Z,24.35
2019-04-01T09:12:49.402Z,24.42
2019-04-01T09:15:17.873Z,24.50
2019-04-01T09:17:46.277Z,24.59
2019-04-01T09:20:14.744Z,24.65
2019-04-01T09:22:43.224Z,24.73
2019-04-01T09:25:11.734Z,24.82
2019-04-01T09:30:31.508Z,25.00
2019-04-01T09:32:59.935Z,25.11
2019-04-01T09:35:28.325Z,25.20
2019-04-01T09:37:56.820Z,25.29
2019-04-01T09:40:25.223Z,25.39
2019-04-01T09:42:53.616Z,25.46
2019-04-01T09:45:22.069Z,25.55
2019-04-01T09:47:50.461Z,25.65
2019-04-01T09:50:18.857Z,25.75
2019-04-01T09:52:47.245Z,25.83
2019-04-01T09:55:15.637Z,25.93
2019-04-01T09:57:44.127Z,26.04
2019-04-01T10:00:13.961Z,26.10
2019-04-01T10:02:42.432Z,26.23
2019-04-01T10:05:10.941Z,26.34
2019-04-01T10:07:39.447Z,26.44
2019-04-01T10:10:08.007Z,26.54
2019-04-01T10:12:36.400Z,26.59
2019-04-01T10:15:07.541Z,26.74
2019-04-01T10:17:35.976Z,26.85
2019-04-01T10:20:07.385Z,26.96
2019-04-01T10:22:35.777Z,27.08
2019-04-01T10:25:05.448Z,27.19
2019-04-01T10:27:33.896Z,27.31
2019-04-01T10:30:02.318Z,27.44
2019-04-01T10:32:30.718Z,27.55
2019-04-01T10:34:59.141Z,27.70
2019-04-01T10:37:27.553Z,27.83
2019-04-01T10:39:56.029Z,28.00
2019-04-01T10:42:24.423Z,28.18
2019-04-01T10:44:52.844Z,28.39
2019-04-01T10:47:21.330Z,28.60
2019-04-01T10:49:49.756Z,28.84
2019-04-01T10:52:18.412Z,29.11
2019-04-01T10:54:46.833Z,29.40
2019-04-01T10:57:15.244Z,29.71
2019-04-01T10:59:43.959Z,30.12
2019-04-01T11:02:12.427Z,30.54
2019-04-01T11:04:40.892Z,31.03
2019-04-01T11:07:09.309Z,31.54
2019-04-01T11:09:38.867Z,32.10
2019-04-01T11:12:07.354Z,32.65
2019-04-01T11:14:35.784Z,33.16
2019-04-01T11:17:04.695Z,33.73
2019-04-01T11:19:34.261Z,34.25
2019-04-01T11:22:03.747Z,34.64
2019-04-01T11:24:32.333Z,35.07
2019-04-01T11:27:00.727Z,35.50
2019-04-01T11:29:29.153Z,35.81
2019-04-01T11:31:57.608Z,36.14
2019-04-01T11:34:26.086Z,36.36
2019-04-01T11:36:54.592Z,36.69
2019-04-01T11:39:22.980Z,36.91
2019-04-01T11:41:51.418Z,37.15
2019-04-01T11:44:19.839Z,37.46
2019-04-01T11:46:48.369Z,37.62
2019-04-01T11:49:16.706Z,37.81
2019-04-01T11:51:45.126Z,38.03
2019-04-01T11:54:13.497Z,38.19
2019-04-01T11:56:41.942Z,38.37
2019-04-01T11:59:10.336Z,38.61
2019-04-01T12:01:38.725Z,38.67
2019-04-01T12:04:07.116Z,38.83
2019-04-01T12:06:35.516Z,39.04
2019-04-01T12:09:06.919Z,39.20
2019-04-01T12:11:35.490Z,39.39
2019-04-01T12:14:05.223Z,39.48
2019-04-01T12:16:33.950Z,39.65
2019-04-01T12:19:02.342Z,39.87
2019-04-01T12:21:31.012Z,40.04
2019-04-01T12:23:59.682Z,40.16
2019-04-01T12:26:28.081Z,40.38
2019-04-01T12:28:56.486Z,40.42
2019-04-01T12:31:24.875Z,40.64
2019-04-01T12:33:53.266Z,40.79
2019-04-01T12:36:21.660Z,41.01
2019-04-01T12:38:53.457Z,41.24
2019-04-01T12:41:20.243Z,41.33
2019-04-01T12:43:48.652Z,41.55
2019-04-01T12:46:17.219Z,41.73
2019-04-01T12:48:45.610Z,41.91
2019-04-01T12:51:14.120Z,42.08
2019-04-01T12:53:42.602Z,42.27
2019-04-01T12:56:11.002Z,42.53
2019-04-01T12:58:39.469Z,42.67
2019-04-01T13:01:07.878Z,42.80
2019-04-01T13:03:36.270Z,43.05
2019-04-01T13:06:04.795Z,43.21
2019-04-01T13:08:33.261Z,43.38
2019-04-01T13:11:01.686Z,43.51
2019-04-01T13:13:30.104Z,43.66
2019-04-01T13:15:58.542Z,43.74
2019-04-01T13:18:27.007Z,43.85
2019-04-01T13:20:55.438Z,44.00
2019-04-01T13:23:23.825Z,44.21
2019-04-01T13:25:52.246Z,44.29
2019-04-01T13:28:21.687Z,44.45
2019-04-01T13:30:50.219Z,44.62
2019-04-01T13:33:18.604Z,44.71
2019-04-01T13:35:47.055Z,44.80
2019-04-01T13:38:15.631Z,44.81
2019-04-01T13:40:44.519Z,45.03
2019-04-01T13:43:16.731Z,44.93
2019-04-01T13:45:43.345Z,45.01
2019-04-01T13:48:11.932Z,45.12
2019-04-01T13:50:40.364Z,44.94
2019-04-01T13:53:08.804Z,45.09
2019-04-01T13:55:38.144Z,45.06
2019-04-01T13:58:06.623Z,45.05
2019-04-01T14:00:35.114Z,45.07
2019-04-01T14:03:03.616Z,45.11
2019-04-01T14:05:32.131Z,45.26
2019-04-01T14:08:00.526Z,45.08
2019-04-01T14:10:28.974Z,45.05
2019-04-01T14:12:57.395Z,44.73
2019-04-01T14:15:25.782Z,42.57
2019-04-01T14:17:54.171Z,41.23
2019-04-01T14:20:23.908Z,40.05
2019-04-01T14:22:53.696Z,38.85
2019-04-01T14:25:22.316Z,37.85
2019-04-01T14:27:50.758Z,36.92
2019-04-01T14:30:19.149Z,36.11
2019-04-01T14:32:47.546Z,35.40
2019-04-01T14:35:15.943Z,34.72
2019-04-01T14:37:44.331Z,34.09
2019-04-01T14:40:14.420Z,33.61
2019-04-01T14:42:42.814Z,33.11
2019-04-01T14:45:11.233Z,32.66
2019-04-01T14:47:56.026Z,32.26
2019-04-01T14:50:10.305Z,31.87
2019-04-01T14:52:38.699Z,31.52
2019-04-01T14:55:07.097Z,31.20
2019-04-01T14:57:35.483Z,30.90
2019-04-01T15:00:06.657Z,30.62
2019-04-01T15:02:35.133Z,30.38
2019-04-01T15:05:04.950Z,30.11
2019-04-01T15:07:33.541Z,29.87
2019-04-01T15:10:02.019Z,29.66
2019-04-01T15:12:30.414Z,29.46
2019-04-01T15:14:58.807Z,29.26
2019-04-01T15:17:28.357Z,29.09
2019-04-01T15:19:56.947Z,28.90
2019-04-01T15:22:27.251Z,28.74
2019-04-01T15:24:55.696Z,28.58
2019-04-01T15:27:24.192Z,28.45
2019-04-01T15:29:52.587Z,28.29
2019-04-01T15:32:20.995Z,28.16
2019-04-01T15:34:49.531Z,28.04
2019-04-01T15:37:18.011Z,27.91
2019-04-01T15:39:47.396Z,27.80
2019-04-01T15:42:16.090Z,27.70
2019-04-01T15:44:44.477Z,27.57
2019-04-01T15:47:12.871Z,27.49
2019-04-01T15:49:41.264Z,27.38
2019-04-01T15:52:09.692Z,27.28
2019-04-01T15:54:38.154Z,27.20
2019-04-01T15:57:06.565Z,27.09
2019-04-01T15:59:35.121Z,27.00
2019-04-01T16:02:03.752Z,26.91
2019-04-01T16:04:32.313Z,26.83
2019-04-01T16:07:00.733Z,26.75
2019-04-01T16:09:29.659Z,26.67
2019-04-01T16:11:58.380Z,26.58
2019-04-01T16:14:26.840Z,26.50
2019-04-01T16:16:55.255Z,26.44
2019-04-01T16:19:23.653Z,26.35
2019-04-01T16:21:53.016Z,26.25
2019-04-01T16:24:21.543Z,26.20
2019-04-01T16:26:49.956Z,26.11
2019-04-01T16:29:18.352Z,26.03
2019-04-01T16:31:48.449Z,25.97
2019-04-01T16:34:16.928Z,25.90
2019-04-01T16:36:45.352Z,25.83
2019-04-01T16:39:13.745Z,25.77
2019-04-01T16:41:42.169Z,25.71
2019-04-01T16:44:10.556Z,25.64
2019-04-01T16:46:38.964Z,25.58
2019-04-01T16:49:07.675Z,25.53
2019-04-01T16:51:36.649Z,25.46
2019-04-01T16:54:05.125Z,25.41
2019-04-01T16:56:33.624Z,25.36
2019-04-01T16:59:02.082Z,25.28
2019-04-01T17:01:30.480Z,25.23
2019-04-01T17:03:58.878Z,25.18
2019-04-01T17:06:27.267Z,25.13
2019-04-01T17:08:55.659Z,25.08
2019-04-01T17:11:24.138Z,25.04
2019-04-01T17:13:52.543Z,25.00
2019-04-01T17:16:20.936Z,24.96
2019-04-01T17:18:49.356Z,24.91
2019-04-01T17:21:17.753Z,24.87
2019-04-01T17:23:46.717Z,24.84
2019-04-01T17:26:15.109Z,24.80
2019-04-01T17:28:43.596Z,24.75
2019-04-01T17:31:11.985Z,24.72
2019-04-01T17:33:40.408Z,24.68
2019-04-01T17:36:11.036Z,24.65
2019-04-01T17:38:39.528Z,24.63
2019-04-01T17:41:07.938Z,24.59
2019-04-01T17:43:36.323Z,24.55
2019-04-01T17:46:04.721Z,24.52
2019-04-01T17:48:33.281Z,24.49
2019-04-01T17:51:01.988Z,24.44
2019-04-01T17:53:30.380Z,24.42
2019-04-01T17:55:58.772Z,24.38
2019-04-01T17:58:27.170Z,24.36
2019-04-01T18:00:57.234Z,24.31
2019-04-01T18:03:25.635Z,24.29
2019-04-01T18:05:54.029Z,24.25
2019-04-01T18:08:22.422Z,24.23
2019-04-01T18:10:50.818Z,24.20
2019-04-01T18:13:19.211Z,24.17
2019-04-01T18:15:47.613Z,24.16
2019-04-01T18:18:26.584Z,24.12
2019-04-01T18:20:46.199Z,24.11
2019-04-01T18:23:14.598Z,24.08
2019-04-01T18:25:43.058Z,24.07
2019-04-01T18:28:12.909Z,24.02
2019-04-01T18:30:41.437Z,24.02
2019-04-01T18:33:09.831Z,23.99
2019-04-01T18:35:38.346Z,23.96
2019-04-01T18:38:06.761Z,23.94
2019-04-01T18:40:35.822Z,23.93
2019-04-01T18:43:04.485Z,23.90
2019-04-01T18:45:34.381Z,23.88
2019-04-01T18:48:02.802Z,23.87
2019-04-01T18:50:32.580Z,23.85
2019-04-01T18:53:01.023Z,23.83
2019-04-01T18:55:31.159Z,23.83
2019-04-01T18:57:59.713Z,23.82
2019-04-01T19:00:28.158Z,23.82
2019-04-01T19:02:56.566Z,23.81
2019-04-01T19:05:24.964Z,23.81
2019-04-01T19:07:53.436Z,23.81
2019-04-01T19:10:21.841Z,23.82
2019-04-01T19:12:50.238Z,23.81
2019-04-01T19:15:18.649Z,23.81
2019-04-01T19:17:47.043Z,23.80
2019-04-01T19:20:15.457Z,23.78
2019-04-01T19:22:43.856Z,23.76
2019-04-01T19:25:12.268Z,23.75
2019-04-01T19:27:40.668Z,23.73
2019-04-01T19:30:09.103Z,23.71
2019-04-01T19:32:38.376Z,23.69
2019-04-01T19:35:09.418Z,23.68
2019-04-01T19:37:37.632Z,23.66
2019-04-01T19:40:07.843Z,23.67
2019-04-01T19:42:39.277Z,23.66
2019-04-01T19:45:07.026Z,23.67
2019-04-01T19:47:35.417Z,23.68
2019-04-01T19:50:05.567Z,23.67
2019-04-01T19:52:35.266Z,23.68
2019-04-01T19:55:04.922Z,23.67
2019-04-01T19:57:33.327Z,23.67
2019-04-01T20:00:01.745Z,23.67
2019-04-01T20:02:30.297Z,23.66
2019-04-01T20:04:58.720Z,23.65
2019-04-01T20:07:27.115Z,23.65
2019-04-01T20:09:55.547Z,23.62
2019-04-01T20:12:23.948Z,23.60
2019-04-01T20:14:52.385Z,23.59
2019-04-01T20:17:20.784Z,23.58
2019-04-01T20:19:49.216Z,23.57
2019-04-01T20:22:17.605Z,23.55
2019-04-01T20:24:46.040Z,23.54
2019-04-01T20:27:15.259Z,23.51
2019-04-01T20:29:43.942Z,23.50
2019-04-01T20:32:17.569Z,23.48
2019-04-01T20:34:42.596Z,23.45
2019-04-01T20:37:10.998Z,23.46
2019-04-01T20:39:39.429Z,23.43
2019-04-01T20:42:10.433Z,23.40
2019-04-01T20:44:38.824Z,23.39
2019-04-01T20:47:07.991Z,23.38
2019-04-01T20:49:36.400Z,23.37
2019-04-01T20:52:04.790Z,23.34
2019-04-01T20:54:33.192Z,23.33
2019-04-01T20:57:01.591Z,23.32
2019-04-01T20:59:29.987Z,23.30
2019-04-01T21:01:58.379Z,23.30
2019-04-01T21:04:27.176Z,23.27
2019-04-01T21:06:55.865Z,23.25
2019-04-01T21:09:24.261Z,23.23
2019-04-01T21:11:52.649Z,23.22
2019-04-01T21:14:22.585Z,23.21
2019-04-01T21:16:51.255Z,23.20
2019-04-01T21:19:19.650Z,23.19
2019-04-01T21:21:48.036Z,23.17
2019-04-01T21:24:16.430Z,23.17
2019-04-01T21:26:44.823Z,23.16
2019-04-01T21:29:13.260Z,23.13
2019-04-01T21:31:41.692Z,23.14
2019-04-01T21:34:10.255Z,23.11
2019-04-01T21:36:39.571Z,23.12
2019-04-01T21:39:08.008Z,23.09
2019-04-01T21:41:36.406Z,23.08
2019-04-01T21:44:04.820Z,23.07
2019-04-01T21:46:33.218Z,23.06
2019-04-01T21:49:01.637Z,23.05
2019-04-01T21:51:30.040Z,23.04
2019-04-01T21:53:59.114Z,23.04
2019-04-01T21:56:28.251Z,23.03
2019-04-01T21:58:56.679Z,23.00
2019-04-01T22:01:25.125Z,23.00
2019-04-01T22:03:55.413Z,22.99
2019-04-01T22:06:23.884Z,22.98
2019-04-01T22:08:52.276Z,22.97
2019-04-01T22:11:20.665Z,22.95
2019-04-01T22:13:49.056Z,22.94
2019-04-01T22:16:18.174Z,22.92
2019-04-01T22:18:47.434Z,22.92
2019-04-01T22:21:15.830Z,22.91
2019-04-01T22:23:44.294Z,22.89
2019-04-01T22:26:12.690Z,22.88
2019-04-01T22:28:41.076Z,22.87
2019-04-01T22:31:09.509Z,22.86
2019-04-01T22:33:37.902Z,22.85
2019-04-01T22:36:06.327Z,22.85
2019-04-01T22:38:35.196Z,22.85
2019-04-01T22:41:03.936Z,22.83
2019-04-01T22:43:32.441Z,22.83
2019-04-01T22:46:00.852Z,22.82
2019-04-01T22:48:29.239Z,22.83
2019-04-01T22:50:57.901Z,22.82
2019-04-01T22:53:26.431Z,22.80
2019-04-01T22:55:54.852Z,22.81
2019-04-01T22:58:23.242Z,22.79
2019-04-01T23:00:51.649Z,22.78
2019-04-01T23:03:20.050Z,22.76
2019-04-01T23:05:48.472Z,22.76
2019-04-01T23:08:16.862Z,22.75
2019-04-01T23:10:45.299Z,22.74
2019-04-01T23:13:13.688Z,22.74
2019-04-01T23:15:43.160Z,22.74
2019-04-01T23:18:12.299Z,22.73
2019-04-01T23:20:40.701Z,22.72
2019-04-01T23:23:09.099Z,22.72
2019-04-01T23:25:37.573Z,22.70
2019-04-01T23:28:05.984Z,22.70
2019-04-01T23:30:34.409Z,22.69
2019-04-01T23:33:02.802Z,22.69
2019-04-01T23:35:31.225Z,22.69
2019-04-01T23:37:59.613Z,22.67
2019-04-01T23:40:28.042Z,22.66
2019-04-01T23:42:57.644Z,22.66
2019-04-01T23:45:26.440Z,22.66
2019-04-01T23:47:54.839Z,22.63
2019-04-01T23:50:23.249Z,22.64
2019-04-01T23:52:51.649Z,22.62
2019-04-01T23:55:20.041Z,22.62
2019-04-01T23:57:48.452Z,22.60
